sensor_id;sensor_type;location;lat;lon;timestamp;temperature;humidity
1391;DHT22;690;51.454;7.194;2023-07-13T00:01:04;15.50;99.90
1391;DHT22;690;51.454;7.194;2023-07-13T00:03:32;15.50;99.90
1391;DHT22;690;51.454;7.194;2023-07-13T00:06:02;15.50;99.90
1391;DHT22;690;51.454;7.194;2023-07-13T00:08:31;15.40;99.90
1391;DHT22;690;51.454;7.194;2023-07-13T00:10:59;15.40;99.90
1391;DHT22;690;51.454;7.194;2023-07-13T00:13:26;15.40;99.90
1391;DHT22;690;51.454;7.194;2023-07-13T00:15:53;15.30;99.90
1391;DHT22;690;51.454;7.194;2023-07-13T00:18:20;15.30;99.90
1391;DHT22;690;51.454;7.194;2023-07-13T00:20:47;15.20;99.90
1391;DHT22;690;51.454;7.194;2023-07-13T00:23:16;15.20;99.90
1391;DHT22;690;51.454;7.194;2023-07-13T00:25:43;15.10;99.90
1391;DHT22;690;51.454;7.194;2023-07-13T00:28:10;15.10;99.90
1391;DHT22;690;51.454;7.194;2023-07-13T00:30:37;15.00;99.90
1391;DHT22;690;51.454;7.194;2023-07-13T00:33:04;15.00;99.90
1391;DHT22;690;51.454;7.194;2023-07-13T00:35:31;15.00;99.90
1391;DHT22;690;51.454;7.194;2023-07-13T00:37:58;14.90;99.90
1391;DHT22;690;51.454;7.194;2023-07-13T00:40:27;14.90;99.90
1391;DHT22;690;51.454;7.194;2023-07-13T00:42:56;14.80;99.90
1391;DHT22;690;51.454;7.194;2023-07-13T00:48:29;14.70;99.90
1391;DHT22;690;51.454;7.194;2023-07-13T00:50:59;14.70;99.90
1391;DHT22;690;51.454;7.194;2023-07-13T00:53:28;14.70;99.90
1391;DHT22;690;51.454;7.194;2023-07-13T00:55:57;14.60;99.90
1391;DHT22;690;51.454;7.194;2023-07-13T00:58:25;14.60;99.90
1391;DHT22;690;51.454;7.194;2023-07-13T01:00:53;14.50;99.90
1391;DHT22;690;51.454;7.194;2023-07-13T01:03:20;14.50;99.90
1391;DHT22;690;51.454;7.194;2023-07-13T01:05:48;14.50;99.90
1391;DHT22;690;51.454;7.194;2023-07-13T01:08:15;14.50;99.90
1391;DHT22;690;51.454;7.194;2023-07-13T01:10:51;14.40;99.90
1391;DHT22;690;51.454;7.194;2023-07-13T01:13:19;14.40;99.90
1391;DHT22;690;51.454;7.194;2023-07-13T01:15:48;14.30;99.90
1391;DHT22;690;51.454;7.194;2023-07-13T01:18:18;14.30;99.90
1391;DHT22;690;51.454;7.194;2023-07-13T01:20:53;14.30;99.90
1391;DHT22;690;51.454;7.194;2023-07-13T01:23:20;14.30;99.90
1391;DHT22;690;51.454;7.194;2023-07-13T01:25:46;14.20;99.90
1391;DHT22;690;51.454;7.194;2023-07-13T01:28:13;14.20;99.90
1391;DHT22;690;51.454;7.194;2023-07-13T01:30:43;14.20;99.90
1391;DHT22;690;51.454;7.194;2023-07-13T01:33:12;14.20;99.90
1391;DHT22;690;51.454;7.194;2023-07-13T01:35:39;14.20;99.90
1391;DHT22;690;51.454;7.194;2023-07-13T01:38:08;14.20;99.90
1391;DHT22;690;51.454;7.194;2023-07-13T01:40:37;14.10;99.90
1391;DHT22;690;51.454;7.194;2023-07-13T01:43:05;14.20;99.90
1391;DHT22;690;51.454;7.194;2023-07-13T01:45:33;14.20;99.90
1391;DHT22;690;51.454;7.194;2023-07-13T01:48:00;14.10;99.90
1391;DHT22;690;51.454;7.194;2023-07-13T01:50:27;14.20;99.90
1391;DHT22;690;51.454;7.194;2023-07-13T01:52:54;14.10;99.90
1391;DHT22;690;51.454;7.194;2023-07-13T01:55:23;14.10;99.90
1391;DHT22;690;51.454;7.194;2023-07-13T01:57:49;14.00;99.90
1391;DHT22;690;51.454;7.194;2023-07-13T02:00:17;14.00;99.90
1391;DHT22;690;51.454;7.194;2023-07-13T02:02:44;14.00;99.90
1391;DHT22;690;51.454;7.194;2023-07-13T02:05:11;14.00;99.90
1391;DHT22;690;51.454;7.194;2023-07-13T02:07:38;14.00;99.90
1391;DHT22;690;51.454;7.194;2023-07-13T02:10:06;13.90;99.90
1391;DHT22;690;51.454;7.194;2023-07-13T02:12:35;13.90;99.90
1391;DHT22;690;51.454;7.194;2023-07-13T02:15:03;13.90;99.90
1391;DHT22;690;51.454;7.194;2023-07-13T02:17:30;13.90;99.90
1391;DHT22;690;51.454;7.194;2023-07-13T02:19:57;13.90;99.90
1391;DHT22;690;51.454;7.194;2023-07-13T02:22:24;13.90;99.90
1391;DHT22;690;51.454;7.194;2023-07-13T02:24:51;13.90;99.90
1391;DHT22;690;51.454;7.194;2023-07-13T02:27:18;13.90;99.90
1391;DHT22;690;51.454;7.194;2023-07-13T02:29:46;13.90;99.90
1391;DHT22;690;51.454;7.194;2023-07-13T02:32:13;13.90;99.90
1391;DHT22;690;51.454;7.194;2023-07-13T02:34:41;13.90;99.90
1391;DHT22;690;51.454;7.194;2023-07-13T02:37:08;13.80;99.90
1391;DHT22;690;51.454;7.194;2023-07-13T02:39:35;13.80;99.90
1391;DHT22;690;51.454;7.194;2023-07-13T02:42:02;13.80;99.90
1391;DHT22;690;51.454;7.194;2023-07-13T02:44:29;13.80;99.90
1391;DHT22;690;51.454;7.194;2023-07-13T02:46:57;13.80;99.90
1391;DHT22;690;51.454;7.194;2023-07-13T02:49:24;13.80;99.90
1391;DHT22;690;51.454;7.194;2023-07-13T02:51:51;13.80;99.90
1391;DHT22;690;51.454;7.194;2023-07-13T02:54:18;13.80;99.90
1391;DHT22;690;51.454;7.194;2023-07-13T02:56:45;13.70;99.90
1391;DHT22;690;51.454;7.194;2023-07-13T02:59:12;13.70;99.90
1391;DHT22;690;51.454;7.194;2023-07-13T03:01:38;13.70;99.90
1391;DHT22;690;51.454;7.194;2023-07-13T03:04:07;13.70;99.90
1391;DHT22;690;51.454;7.194;2023-07-13T03:06:34;13.70;99.90
1391;DHT22;690;51.454;7.194;2023-07-13T03:09:01;13.70;99.90
1391;DHT22;690;51.454;7.194;2023-07-13T03:11:29;13.60;99.90
1391;DHT22;690;51.454;7.194;2023-07-13T03:13:56;13.60;99.90
1391;DHT22;690;51.454;7.194;2023-07-13T03:16:23;13.60;99.90
1391;DHT22;690;51.454;7.194;2023-07-13T03:18:50;13.60;99.90
1391;DHT22;690;51.454;7.194;2023-07-13T03:21:18;13.60;99.90
1391;DHT22;690;51.454;7.194;2023-07-13T03:23:46;13.60;99.90
1391;DHT22;690;51.454;7.194;2023-07-13T03:26:15;13.50;99.90
1391;DHT22;690;51.454;7.194;2023-07-13T03:28:42;13.50;99.90
1391;DHT22;690;51.454;7.194;2023-07-13T03:31:11;13.50;99.90
1391;DHT22;690;51.454;7.194;2023-07-13T03:33:39;13.50;99.90
1391;DHT22;690;51.454;7.194;2023-07-13T03:36:07;13.50;99.90
1391;DHT22;690;51.454;7.194;2023-07-13T03:38:36;13.50;99.90
1391;DHT22;690;51.454;7.194;2023-07-13T03:41:03;13.50;99.90
1391;DHT22;690;51.454;7.194;2023-07-13T03:43:30;13.50;99.90
1391;DHT22;690;51.454;7.194;2023-07-13T03:45:56;13.50;99.90
1391;DHT22;690;51.454;7.194;2023-07-13T03:48:23;13.50;99.90
1391;DHT22;690;51.454;7.194;2023-07-13T03:50:50;13.50;99.90
1391;DHT22;690;51.454;7.194;2023-07-13T03:53:17;13.50;99.90
1391;DHT22;690;51.454;7.194;2023-07-13T03:55:46;13.60;99.90
1391;DHT22;690;51.454;7.194;2023-07-13T03:58:33;13.60;99.90
1391;DHT22;690;51.454;7.194;2023-07-13T04:01:03;13.60;99.90
1391;DHT22;690;51.454;7.194;2023-07-13T04:03:31;13.60;99.90
1391;DHT22;690;51.454;7.194;2023-07-13T04:05:58;13.70;99.90
1391;DHT22;690;51.454;7.194;2023-07-13T04:08:26;13.80;99.90
1391;DHT22;690;51.454;7.194;2023-07-13T04:10:55;13.80;99.90
1391;DHT22;690;51.454;7.194;2023-07-13T04:13:23;13.90;99.90
1391;DHT22;690;51.454;7.194;2023-07-13T04:15:50;14.00;99.90
1391;DHT22;690;51.454;7.194;2023-07-13T04:18:17;14.00;99.90
1391;DHT22;690;51.454;7.194;2023-07-13T04:20:45;14.10;99.90
1391;DHT22;690;51.454;7.194;2023-07-13T04:23:12;14.20;99.90
1391;DHT22;690;51.454;7.194;2023-07-13T04:25:39;14.20;99.90
1391;DHT22;690;51.454;7.194;2023-07-13T04:28:07;14.20;99.90
1391;DHT22;690;51.454;7.194;2023-07-13T04:30:34;14.20;99.90
1391;DHT22;690;51.454;7.194;2023-07-13T04:33:01;14.20;99.90
1391;DHT22;690;51.454;7.194;2023-07-13T04:35:30;14.20;99.90
1391;DHT22;690;51.454;7.194;2023-07-13T04:37:57;14.10;99.90
1391;DHT22;690;51.454;7.194;2023-07-13T04:40:25;14.10;99.90
1391;DHT22;690;51.454;7.194;2023-07-13T04:42:53;14.10;99.90
1391;DHT22;690;51.454;7.194;2023-07-13T04:45:22;14.20;99.90
1391;DHT22;690;51.454;7.194;2023-07-13T04:47:50;14.30;99.90
1391;DHT22;690;51.454;7.194;2023-07-13T04:50:17;14.30;99.90
1391;DHT22;690;51.454;7.194;2023-07-13T04:52:49;14.40;99.90
1391;DHT22;690;51.454;7.194;2023-07-13T04:55:16;14.50;99.90
1391;DHT22;690;51.454;7.194;2023-07-13T04:57:43;14.60;99.90
1391;DHT22;690;51.454;7.194;2023-07-13T05:00:12;14.70;99.90
1391;DHT22;690;51.454;7.194;2023-07-13T05:02:43;14.70;99.90
1391;DHT22;690;51.454;7.194;2023-07-13T05:05:11;14.80;99.90
1391;DHT22;690;51.454;7.194;2023-07-13T05:07:38;14.70;99.90
1391;DHT22;690;51.454;7.194;2023-07-13T05:10:06;14.80;99.90
1391;DHT22;690;51.454;7.194;2023-07-13T05:12:33;14.80;99.90
1391;DHT22;690;51.454;7.194;2023-07-13T05:15:00;14.80;99.90
1391;DHT22;690;51.454;7.194;2023-07-13T05:17:28;14.80;99.90
1391;DHT22;690;51.454;7.194;2023-07-13T05:19:56;14.90;99.90
1391;DHT22;690;51.454;7.194;2023-07-13T05:22:23;15.00;99.90
1391;DHT22;690;51.454;7.194;2023-07-13T05:24:50;15.00;99.90
1391;DHT22;690;51.454;7.194;2023-07-13T05:27:17;15.10;99.90
1391;DHT22;690;51.454;7.194;2023-07-13T05:29:44;15.20;99.90
1391;DHT22;690;51.454;7.194;2023-07-13T05:32:11;15.30;99.90
1391;DHT22;690;51.454;7.194;2023-07-13T05:34:37;15.40;99.90
1391;DHT22;690;51.454;7.194;2023-07-13T05:37:07;15.40;99.90
1391;DHT22;690;51.454;7.194;2023-07-13T05:39:34;15.50;99.90
1391;DHT22;690;51.454;7.194;2023-07-13T05:42:01;15.60;99.90
1391;DHT22;690;51.454;7.194;2023-07-13T05:44:30;15.80;99.90
1391;DHT22;690;51.454;7.194;2023-07-13T05:46:57;15.80;99.90
1391;DHT22;690;51.454;7.194;2023-07-13T05:49:24;15.70;99.90
1391;DHT22;690;51.454;7.194;2023-07-13T05:51:51;15.80;99.90
1391;DHT22;690;51.454;7.194;2023-07-13T05:54:19;15.80;99.90
1391;DHT22;690;51.454;7.194;2023-07-13T05:56:46;15.80;99.90
1391;DHT22;690;51.454;7.194;2023-07-13T05:59:13;15.80;99.90
1391;DHT22;690;51.454;7.194;2023-07-13T06:01:41;15.70;99.90
1391;DHT22;690;51.454;7.194;2023-07-13T06:04:08;15.70;99.90
1391;DHT22;690;51.454;7.194;2023-07-13T06:06:35;15.70;99.90
1391;DHT22;690;51.454;7.194;2023-07-13T06:09:02;15.90;99.90
1391;DHT22;690;51.454;7.194;2023-07-13T06:11:30;16.00;99.90
1391;DHT22;690;51.454;7.194;2023-07-13T06:13:57;16.20;99.90
1391;DHT22;690;51.454;7.194;2023-07-13T06:16:24;16.40;99.90
1391;DHT22;690;51.454;7.194;2023-07-13T06:18:51;16.50;99.90
1391;DHT22;690;51.454;7.194;2023-07-13T06:21:19;16.50;99.90
1391;DHT22;690;51.454;7.194;2023-07-13T06:23:48;16.50;99.90
1391;DHT22;690;51.454;7.194;2023-07-13T06:26:15;16.60;99.90
1391;DHT22;690;51.454;7.194;2023-07-13T06:28:44;16.70;99.90
1391;DHT22;690;51.454;7.194;2023-07-13T06:31:12;16.70;99.90
1391;DHT22;690;51.454;7.194;2023-07-13T06:33:39;16.70;99.90
1391;DHT22;690;51.454;7.194;2023-07-13T06:36:07;16.70;99.90
1391;DHT22;690;51.454;7.194;2023-07-13T06:38:35;16.70;99.90
1391;DHT22;690;51.454;7.194;2023-07-13T06:41:02;16.70;99.90
1391;DHT22;690;51.454;7.194;2023-07-13T06:43:29;16.70;99.90
1391;DHT22;690;51.454;7.194;2023-07-13T06:45:59;16.80;99.90
1391;DHT22;690;51.454;7.194;2023-07-13T06:48:26;16.80;99.90
1391;DHT22;690;51.454;7.194;2023-07-13T06:50:53;16.80;99.90
1391;DHT22;690;51.454;7.194;2023-07-13T06:53:21;16.80;99.90
1391;DHT22;690;51.454;7.194;2023-07-13T06:55:48;16.80;99.90
1391;DHT22;690;51.454;7.194;2023-07-13T06:58:16;16.70;99.90
1391;DHT22;690;51.454;7.194;2023-07-13T07:00:43;16.70;99.90
1391;DHT22;690;51.454;7.194;2023-07-13T07:03:12;16.70;99.90
1391;DHT22;690;51.454;7.194;2023-07-13T07:05:39;16.70;99.90
1391;DHT22;690;51.454;7.194;2023-07-13T07:08:06;16.60;99.90
1391;DHT22;690;51.454;7.194;2023-07-13T07:10:34;16.50;99.90
1391;DHT22;690;51.454;7.194;2023-07-13T07:13:02;16.30;99.90
1391;DHT22;690;51.454;7.194;2023-07-13T07:15:29;16.20;99.90
1391;DHT22;690;51.454;7.194;2023-07-13T07:17:56;16.30;99.90
1391;DHT22;690;51.454;7.194;2023-07-13T07:20:24;16.30;99.90
1391;DHT22;690;51.454;7.194;2023-07-13T07:22:52;16.30;99.90
1391;DHT22;690;51.454;7.194;2023-07-13T07:25:19;16.40;99.90
1391;DHT22;690;51.454;7.194;2023-07-13T07:27:46;16.30;99.90
1391;DHT22;690;51.454;7.194;2023-07-13T07:30:13;16.40;99.90
1391;DHT22;690;51.454;7.194;2023-07-13T07:32:40;16.50;99.90
1391;DHT22;690;51.454;7.194;2023-07-13T07:35:08;16.80;99.90
1391;DHT22;690;51.454;7.194;2023-07-13T07:37:36;16.90;99.90
1391;DHT22;690;51.454;7.194;2023-07-13T07:40:04;17.10;99.90
1391;DHT22;690;51.454;7.194;2023-07-13T07:42:31;17.20;99.90
1391;DHT22;690;51.454;7.194;2023-07-13T07:44:58;17.40;99.90
1391;DHT22;690;51.454;7.194;2023-07-13T07:47:26;17.40;99.90
1391;DHT22;690;51.454;7.194;2023-07-13T07:49:53;17.40;99.90
1391;DHT22;690;51.454;7.194;2023-07-13T07:52:20;17.50;99.90
1391;DHT22;690;51.454;7.194;2023-07-13T07:54:49;17.50;99.90
1391;DHT22;690;51.454;7.194;2023-07-13T07:57:16;17.60;99.90
1391;DHT22;690;51.454;7.194;2023-07-13T07:59:43;17.80;99.90
1391;DHT22;690;51.454;7.194;2023-07-13T08:02:10;17.90;99.90
1391;DHT22;690;51.454;7.194;2023-07-13T08:04:37;18.20;99.90
1391;DHT22;690;51.454;7.194;2023-07-13T08:07:05;18.40;99.90
1391;DHT22;690;51.454;7.194;2023-07-13T08:09:32;18.50;99.90
1391;DHT22;690;51.454;7.194;2023-07-13T08:12:00;18.70;99.90
1391;DHT22;690;51.454;7.194;2023-07-13T08:14:27;18.70;99.90
1391;DHT22;690;51.454;7.194;2023-07-13T08:16:54;18.80;99.90
1391;DHT22;690;51.454;7.194;2023-07-13T08:19:21;18.70;99.90
1391;DHT22;690;51.454;7.194;2023-07-13T08:21:48;18.70;99.90
1391;DHT22;690;51.454;7.194;2023-07-13T08:24:14;18.80;99.90
1391;DHT22;690;51.454;7.194;2023-07-13T08:26:44;18.90;99.90
1391;DHT22;690;51.454;7.194;2023-07-13T08:29:12;19.00;99.90
1391;DHT22;690;51.454;7.194;2023-07-13T08:31:39;19.30;99.90
1391;DHT22;690;51.454;7.194;2023-07-13T08:34:06;19.40;99.90
1391;DHT22;690;51.454;7.194;2023-07-13T08:36:33;19.50;99.90
1391;DHT22;690;51.454;7.194;2023-07-13T08:38:59;19.50;99.90
1391;DHT22;690;51.454;7.194;2023-07-13T08:41:27;19.40;99.90
1391;DHT22;690;51.454;7.194;2023-07-13T08:43:58;19.40;99.90
1391;DHT22;690;51.454;7.194;2023-07-13T08:46:35;19.40;99.90
1391;DHT22;690;51.454;7.194;2023-07-13T08:49:05;19.30;99.90
1391;DHT22;690;51.454;7.194;2023-07-13T08:51:40;19.30;99.90
1391;DHT22;690;51.454;7.194;2023-07-13T08:54:17;19.40;99.90
1391;DHT22;690;51.454;7.194;2023-07-13T08:56:45;19.40;99.90
1391;DHT22;690;51.454;7.194;2023-07-13T08:59:16;19.50;99.90
1391;DHT22;690;51.454;7.194;2023-07-13T09:04:42;19.60;99.90
1391;DHT22;690;51.454;7.194;2023-07-13T09:07:17;19.40;99.90
1391;DHT22;690;51.454;7.194;2023-07-13T09:09:55;19.40;99.90
1391;DHT22;690;51.454;7.194;2023-07-13T09:12:33;19.40;99.90
1391;DHT22;690;51.454;7.194;2023-07-13T09:15:04;19.40;99.90
1391;DHT22;690;51.454;7.194;2023-07-13T09:17:36;19.40;99.90
1391;DHT22;690;51.454;7.194;2023-07-13T09:20:12;19.50;99.90
1391;DHT22;690;51.454;7.194;2023-07-13T09:22:44;19.50;99.90
1391;DHT22;690;51.454;7.194;2023-07-13T09:25:22;19.60;99.90
1391;DHT22;690;51.454;7.194;2023-07-13T09:27:54;19.60;99.90
1391;DHT22;690;51.454;7.194;2023-07-13T09:30:30;19.70;99.90
1391;DHT22;690;51.454;7.194;2023-07-13T09:33:01;19.70;99.90
1391;DHT22;690;51.454;7.194;2023-07-13T09:35:29;19.90;99.90
1391;DHT22;690;51.454;7.194;2023-07-13T09:38:10;19.70;99.90
1391;DHT22;690;51.454;7.194;2023-07-13T09:43:34;19.80;99.90
1391;DHT22;690;51.454;7.194;2023-07-13T09:46:02;19.90;99.90
1391;DHT22;690;51.454;7.194;2023-07-13T09:48:35;20.00;99.90
1391;DHT22;690;51.454;7.194;2023-07-13T09:51:10;20.20;99.90
1391;DHT22;690;51.454;7.194;2023-07-13T09:53:41;20.70;99.90
1391;DHT22;690;51.454;7.194;2023-07-13T09:56:19;21.10;99.90
1391;DHT22;690;51.454;7.194;2023-07-13T09:58:46;21.30;99.90
1391;DHT22;690;51.454;7.194;2023-07-13T10:01:13;21.50;99.90
1391;DHT22;690;51.454;7.194;2023-07-13T10:03:52;21.40;99.90
1391;DHT22;690;51.454;7.194;2023-07-13T10:06:21;21.30;99.90
1391;DHT22;690;51.454;7.194;2023-07-13T10:08:50;21.50;99.90
1391;DHT22;690;51.454;7.194;2023-07-13T10:11:20;21.80;99.90
1391;DHT22;690;51.454;7.194;2023-07-13T10:13:51;21.90;99.90
1391;DHT22;690;51.454;7.194;2023-07-13T10:16:19;21.80;99.90
1391;DHT22;690;51.454;7.194;2023-07-13T10:18:50;21.70;99.90
1391;DHT22;690;51.454;7.194;2023-07-13T10:21:20;21.70;99.90
1391;DHT22;690;51.454;7.194;2023-07-13T10:23:50;21.80;99.90
1391;DHT22;690;51.454;7.194;2023-07-13T10:26:22;21.90;99.90
1391;DHT22;690;51.454;7.194;2023-07-13T10:28:53;22.00;99.90
1391;DHT22;690;51.454;7.194;2023-07-13T10:31:22;22.00;99.90
1391;DHT22;690;51.454;7.194;2023-07-13T10:33:51;22.00;99.90
1391;DHT22;690;51.454;7.194;2023-07-13T10:36:28;22.00;99.90
1391;DHT22;690;51.454;7.194;2023-07-13T10:38:58;21.80;99.90
1391;DHT22;690;51.454;7.194;2023-07-13T10:41:28;21.60;99.90
1391;DHT22;690;51.454;7.194;2023-07-13T10:43:57;21.30;99.90
1391;DHT22;690;51.454;7.194;2023-07-13T10:46:26;21.30;99.90
1391;DHT22;690;51.454;7.194;2023-07-13T10:48:57;21.20;99.90
1391;DHT22;690;51.454;7.194;2023-07-13T10:51:25;21.40;99.90
1391;DHT22;690;51.454;7.194;2023-07-13T10:54:16;21.40;99.90
1391;DHT22;690;51.454;7.194;2023-07-13T10:56:44;21.50;99.90
1391;DHT22;690;51.454;7.194;2023-07-13T10:59:14;21.50;99.90
1391;DHT22;690;51.454;7.194;2023-07-13T11:01:50;21.70;99.90
1391;DHT22;690;51.454;7.194;2023-07-13T11:04:21;21.80;99.90
1391;DHT22;690;51.454;7.194;2023-07-13T11:06:52;21.90;99.90
1391;DHT22;690;51.454;7.194;2023-07-13T11:09:34;22.00;99.90
1391;DHT22;690;51.454;7.194;2023-07-13T11:12:06;22.10;99.90
1391;DHT22;690;51.454;7.194;2023-07-13T11:14:36;22.10;99.90
1391;DHT22;690;51.454;7.194;2023-07-13T11:20:20;21.60;99.90
1391;DHT22;690;51.454;7.194;2023-07-13T11:22:49;21.40;99.90
1391;DHT22;690;51.454;7.194;2023-07-13T11:25:27;21.20;99.90
1391;DHT22;690;51.454;7.194;2023-07-13T11:28:16;21.10;99.90
1391;DHT22;690;51.454;7.194;2023-07-13T11:30:46;21.00;99.90
1391;DHT22;690;51.454;7.194;2023-07-13T11:33:17;21.00;99.90
1391;DHT22;690;51.454;7.194;2023-07-13T11:35:51;21.20;99.90
1391;DHT22;690;51.454;7.194;2023-07-13T11:38:22;21.30;99.90
1391;DHT22;690;51.454;7.194;2023-07-13T11:40:52;21.40;99.90
1391;DHT22;690;51.454;7.194;2023-07-13T11:43:20;21.40;99.90
1391;DHT22;690;51.454;7.194;2023-07-13T11:45:49;21.50;99.90
1391;DHT22;690;51.454;7.194;2023-07-13T11:48:22;21.60;99.90
1391;DHT22;690;51.454;7.194;2023-07-13T11:50:56;21.80;99.90
1391;DHT22;690;51.454;7.194;2023-07-13T11:53:27;22.00;99.90
1391;DHT22;690;51.454;7.194;2023-07-13T11:55:55;22.20;99.90
1391;DHT22;690;51.454;7.194;2023-07-13T11:58:24;22.30;99.90
1391;DHT22;690;51.454;7.194;2023-07-13T12:00:56;22.40;99.90
1391;DHT22;690;51.454;7.194;2023-07-13T12:03:25;22.40;99.90
1391;DHT22;690;51.454;7.194;2023-07-13T12:05:59;22.40;99.90
1391;DHT22;690;51.454;7.194;2023-07-13T12:08:27;22.10;99.90
1391;DHT22;690;51.454;7.194;2023-07-13T12:11:02;22.10;99.90
1391;DHT22;690;51.454;7.194;2023-07-13T12:13:36;22.10;99.90
1391;DHT22;690;51.454;7.194;2023-07-13T12:16:11;22.10;99.90
1391;DHT22;690;51.454;7.194;2023-07-13T12:18:38;22.10;99.90
1391;DHT22;690;51.454;7.194;2023-07-13T12:21:13;22.10;99.90
1391;DHT22;690;51.454;7.194;2023-07-13T12:23:44;22.20;99.90
1391;DHT22;690;51.454;7.194;2023-07-13T12:26:12;22.30;99.90
1391;DHT22;690;51.454;7.194;2023-07-13T12:28:45;22.40;99.90
1391;DHT22;690;51.454;7.194;2023-07-13T12:31:34;22.50;99.90
1391;DHT22;690;51.454;7.194;2023-07-13T12:34:06;22.50;99.90
1391;DHT22;690;51.454;7.194;2023-07-13T12:36:36;22.50;99.90
1391;DHT22;690;51.454;7.194;2023-07-13T12:39:13;22.60;99.90
1391;DHT22;690;51.454;7.194;2023-07-13T12:41:41;22.90;99.90
1391;DHT22;690;51.454;7.194;2023-07-13T12:44:13;23.10;99.90
1391;DHT22;690;51.454;7.194;2023-07-13T12:46:52;23.30;99.90
1391;DHT22;690;51.454;7.194;2023-07-13T12:49:23;23.50;99.90
1391;DHT22;690;51.454;7.194;2023-07-13T12:51:56;23.80;99.90
1391;DHT22;690;51.454;7.194;2023-07-13T12:54:24;24.10;99.90
1391;DHT22;690;51.454;7.194;2023-07-13T12:56:53;24.10;99.90
1391;DHT22;690;51.454;7.194;2023-07-13T12:59:23;24.10;99.90
1391;DHT22;690;51.454;7.194;2023-07-13T13:01:51;23.90;99.90
1391;DHT22;690;51.454;7.194;2023-07-13T13:04:20;23.90;99.90
1391;DHT22;690;51.454;7.194;2023-07-13T13:06:49;23.80;99.90
1391;DHT22;690;51.454;7.194;2023-07-13T13:09:18;23.70;99.90
1391;DHT22;690;51.454;7.194;2023-07-13T13:11:45;23.80;99.90
1391;DHT22;690;51.454;7.194;2023-07-13T13:14:13;23.90;99.90
1391;DHT22;690;51.454;7.194;2023-07-13T13:16:46;23.90;99.90
1391;DHT22;690;51.454;7.194;2023-07-13T13:19:16;23.80;99.90
1391;DHT22;690;51.454;7.194;2023-07-13T13:21:44;23.50;99.90
1391;DHT22;690;51.454;7.194;2023-07-13T13:24:13;23.20;99.90
1391;DHT22;690;51.454;7.194;2023-07-13T13:26:42;22.90;99.90
1391;DHT22;690;51.454;7.194;2023-07-13T13:29:12;22.10;99.90
1391;DHT22;690;51.454;7.194;2023-07-13T13:31:40;20.90;99.90
1391;DHT22;690;51.454;7.194;2023-07-13T13:34:10;20.10;99.90
1391;DHT22;690;51.454;7.194;2023-07-13T13:36:37;19.40;99.90
1391;DHT22;690;51.454;7.194;2023-07-13T13:39:18;18.70;99.90
1391;DHT22;690;51.454;7.194;2023-07-13T13:41:49;18.20;99.90
1391;DHT22;690;51.454;7.194;2023-07-13T13:44:17;17.70;99.90
1391;DHT22;690;51.454;7.194;2023-07-13T13:46:45;17.00;99.90
1391;DHT22;690;51.454;7.194;2023-07-13T13:49:15;16.50;99.90
1391;DHT22;690;51.454;7.194;2023-07-13T13:51:43;16.30;99.90
1391;DHT22;690;51.454;7.194;2023-07-13T13:54:12;16.20;99.90
1391;DHT22;690;51.454;7.194;2023-07-13T13:56:42;16.30;1.00
1391;DHT22;690;51.454;7.194;2023-07-13T13:59:10;16.40;1.00
1391;DHT22;690;51.454;7.194;2023-07-13T14:01:37;16.60;1.00
1391;DHT22;690;51.454;7.194;2023-07-13T14:04:06;16.80;1.00
1391;DHT22;690;51.454;7.194;2023-07-13T14:06:34;16.90;1.00
1391;DHT22;690;51.454;7.194;2023-07-13T14:09:01;17.30;99.90
1391;DHT22;690;51.454;7.194;2023-07-13T14:11:29;17.60;99.90
1391;DHT22;690;51.454;7.194;2023-07-13T14:13:59;17.90;99.90
1391;DHT22;690;51.454;7.194;2023-07-13T14:16:29;18.10;99.90
1391;DHT22;690;51.454;7.194;2023-07-13T14:18:57;18.30;99.90
1391;DHT22;690;51.454;7.194;2023-07-13T14:21:26;18.50;99.90
1391;DHT22;690;51.454;7.194;2023-07-13T14:23:53;18.70;99.90
1391;DHT22;690;51.454;7.194;2023-07-13T14:26:24;18.80;99.90
1391;DHT22;690;51.454;7.194;2023-07-13T14:28:53;18.90;99.90
1391;DHT22;690;51.454;7.194;2023-07-13T14:31:21;18.90;99.90
1391;DHT22;690;51.454;7.194;2023-07-13T14:33:50;18.90;99.90
1391;DHT22;690;51.454;7.194;2023-07-13T14:36:26;18.90;99.90
1391;DHT22;690;51.454;7.194;2023-07-13T14:38:53;18.70;99.90
1391;DHT22;690;51.454;7.194;2023-07-13T14:41:21;18.50;99.90
1391;DHT22;690;51.454;7.194;2023-07-13T14:43:48;18.30;99.90
1391;DHT22;690;51.454;7.194;2023-07-13T14:46:31;18.20;99.90
1391;DHT22;690;51.454;7.194;2023-07-13T14:49:04;18.30;99.90
1391;DHT22;690;51.454;7.194;2023-07-13T14:51:33;18.60;99.90
1391;DHT22;690;51.454;7.194;2023-07-13T14:54:03;18.90;99.90
1391;DHT22;690;51.454;7.194;2023-07-13T14:56:30;19.20;99.90
1391;DHT22;690;51.454;7.194;2023-07-13T14:58:57;19.50;99.90
1391;DHT22;690;51.454;7.194;2023-07-13T15:01:24;19.90;99.90
1391;DHT22;690;51.454;7.194;2023-07-13T15:03:52;20.30;99.90
1391;DHT22;690;51.454;7.194;2023-07-13T15:06:21;20.80;99.90
1391;DHT22;690;51.454;7.194;2023-07-13T15:08:48;21.40;99.90
1391;DHT22;690;51.454;7.194;2023-07-13T15:11:15;21.80;99.90
1391;DHT22;690;51.454;7.194;2023-07-13T15:13:42;22.30;99.90
1391;DHT22;690;51.454;7.194;2023-07-13T15:16:16;22.60;99.90
1391;DHT22;690;51.454;7.194;2023-07-13T15:18:44;22.90;99.90
1391;DHT22;690;51.454;7.194;2023-07-13T15:21:23;23.10;99.90
1391;DHT22;690;51.454;7.194;2023-07-13T15:23:51;23.30;99.90
1391;DHT22;690;51.454;7.194;2023-07-13T15:26:19;23.40;99.90
1391;DHT22;690;51.454;7.194;2023-07-13T15:28:47;23.40;99.90
1391;DHT22;690;51.454;7.194;2023-07-13T15:31:22;23.60;99.90
1391;DHT22;690;51.454;7.194;2023-07-13T15:33:50;24.30;99.90
1391;DHT22;690;51.454;7.194;2023-07-13T15:36:18;24.90;99.90
1391;DHT22;690;51.454;7.194;2023-07-13T15:38:46;24.90;99.90
1391;DHT22;690;51.454;7.194;2023-07-13T15:41:20;24.70;99.90
1391;DHT22;690;51.454;7.194;2023-07-13T15:43:48;24.20;99.90
1391;DHT22;690;51.454;7.194;2023-07-13T15:46:17;23.90;99.90
1391;DHT22;690;51.454;7.194;2023-07-13T15:48:45;23.40;99.90
1391;DHT22;690;51.454;7.194;2023-07-13T15:51:18;23.00;99.90
1391;DHT22;690;51.454;7.194;2023-07-13T15:53:47;22.50;99.90
1391;DHT22;690;51.454;7.194;2023-07-13T15:56:22;22.20;99.90
1391;DHT22;690;51.454;7.194;2023-07-13T15:58:50;21.80;99.90
1391;DHT22;690;51.454;7.194;2023-07-13T16:01:17;21.50;99.90
1391;DHT22;690;51.454;7.194;2023-07-13T16:03:45;21.20;99.90
1391;DHT22;690;51.454;7.194;2023-07-13T16:06:18;20.70;99.90
1391;DHT22;690;51.454;7.194;2023-07-13T16:08:49;20.00;99.90
1391;DHT22;690;51.454;7.194;2023-07-13T16:11:20;19.20;99.90
1391;DHT22;690;51.454;7.194;2023-07-13T16:13:48;18.30;99.90
1391;DHT22;690;51.454;7.194;2023-07-13T16:16:19;17.70;99.90
1391;DHT22;690;51.454;7.194;2023-07-13T16:18:46;17.30;99.90
1391;DHT22;690;51.454;7.194;2023-07-13T16:21:14;17.10;99.90
1391;DHT22;690;51.454;7.194;2023-07-13T16:23:42;17.10;99.90
1391;DHT22;690;51.454;7.194;2023-07-13T16:26:27;17.10;1.00
1391;DHT22;690;51.454;7.194;2023-07-13T16:28:54;17.10;1.00
1391;DHT22;690;51.454;7.194;2023-07-13T16:31:29;17.20;1.00
1391;DHT22;690;51.454;7.194;2023-07-13T16:33:57;17.30;1.00
1391;DHT22;690;51.454;7.194;2023-07-13T16:36:25;17.30;1.00
1391;DHT22;690;51.454;7.194;2023-07-13T16:38:52;17.30;1.00
1391;DHT22;690;51.454;7.194;2023-07-13T16:41:19;17.30;1.00
1391;DHT22;690;51.454;7.194;2023-07-13T16:43:47;17.30;1.00